sensor_id;sensor_type;location;lat;lon;timestamp;P1;durP1;ratioP1;P2;durP2;ratioP2
19213;SDS011;9741;51.020;5.304;2023-04-24T00:01:54;2.17;;;1.97;;
19213;SDS011;9741;51.020;5.304;2023-04-24T00:04:21;1.93;;;1.30;;
19213;SDS011;9741;51.020;5.304;2023-04-24T00:06:51;4.20;;;2.17;;
19213;SDS011;9741;51.020;5.304;2023-04-24T00:09:23;1.60;;;1.43;;
19213;SDS011;9741;51.020;5.304;2023-04-24T00:11:50;4.13;;;2.10;;
19213;SDS011;9741;51.020;5.304;2023-04-24T00:14:19;3.03;;;1.33;;
19213;SDS011;9741;51.020;5.304;2023-04-24T00:16:46;3.90;;;1.80;;
19213;SDS011;9741;51.020;5.304;2023-04-24T00:19:13;4.47;;;2.60;;
19213;SDS011;9741;51.020;5.304;2023-04-24T00:21:41;3.30;;;2.17;;
19213;SDS011;9741;51.020;5.304;2023-04-24T00:24:08;5.03;;;1.97;;
19213;SDS011;9741;51.020;5.304;2023-04-24T00:26:37;3.43;;;2.10;;
19213;SDS011;9741;51.020;5.304;2023-04-24T00:29:04;9.00;;;2.30;;
19213;SDS011;9741;51.020;5.304;2023-04-24T00:31:32;2.23;;;2.10;;
19213;SDS011;9741;51.020;5.304;2023-04-24T00:34:00;2.23;;;1.83;;
19213;SDS011;9741;51.020;5.304;2023-04-24T00:36:27;2.77;;;1.73;;
19213;SDS011;9741;51.020;5.304;2023-04-24T00:38:55;2.17;;;1.70;;
19213;SDS011;9741;51.020;5.304;2023-04-24T00:41:23;2.67;;;2.17;;
19213;SDS011;9741;51.020;5.304;2023-04-24T00:43:53;1.80;;;1.70;;
19213;SDS011;9741;51.020;5.304;2023-04-24T00:46:20;1.73;;;1.63;;
19213;SDS011;9741;51.020;5.304;2023-04-24T00:48:48;2.90;;;1.70;;
19213;SDS011;9741;51.020;5.304;2023-04-24T00:51:15;2.27;;;1.83;;
19213;SDS011;9741;51.020;5.304;2023-04-24T00:53:43;4.73;;;2.50;;
19213;SDS011;9741;51.020;5.304;2023-04-24T00:56:10;6.97;;;2.73;;
19213;SDS011;9741;51.020;5.304;2023-04-24T00:58:37;2.33;;;2.00;;
19213;SDS011;9741;51.020;5.304;2023-04-24T01:01:06;2.57;;;2.13;;
19213;SDS011;9741;51.020;5.304;2023-04-24T01:03:33;3.13;;;2.63;;
19213;SDS011;9741;51.020;5.304;2023-04-24T01:06:03;5.67;;;2.27;;
19213;SDS011;9741;51.020;5.304;2023-04-24T01:08:31;1.93;;;1.83;;
19213;SDS011;9741;51.020;5.304;2023-04-24T01:11:01;2.53;;;1.70;;
19213;SDS011;9741;51.020;5.304;2023-04-24T01:13:31;3.93;;;2.57;;
19213;SDS011;9741;51.020;5.304;2023-04-24T01:15:59;2.70;;;1.83;;
19213;SDS011;9741;51.020;5.304;2023-04-24T01:18:28;3.63;;;2.70;;
19213;SDS011;9741;51.020;5.304;2023-04-24T01:20:57;15.50;;;3.00;;
19213;SDS011;9741;51.020;5.304;2023-04-24T01:23:27;2.67;;;2.13;;
19213;SDS011;9741;51.020;5.304;2023-04-24T01:25:55;4.37;;;3.20;;
19213;SDS011;9741;51.020;5.304;2023-04-24T01:28:22;4.00;;;3.27;;
19213;SDS011;9741;51.020;5.304;2023-04-24T01:30:49;4.07;;;3.03;;
19213;SDS011;9741;51.020;5.304;2023-04-24T01:33:17;2.40;;;1.80;;
19213;SDS011;9741;51.020;5.304;2023-04-24T01:35:45;1.87;;;1.77;;
19213;SDS011;9741;51.020;5.304;2023-04-24T01:38:12;2.30;;;2.07;;
19213;SDS011;9741;51.020;5.304;2023-04-24T01:40:41;2.87;;;2.33;;
19213;SDS011;9741;51.020;5.304;2023-04-24T01:43:08;3.00;;;2.07;;
19213;SDS011;9741;51.020;5.304;2023-04-24T01:45:36;3.13;;;2.30;;
19213;SDS011;9741;51.020;5.304;2023-04-24T01:48:03;2.83;;;2.57;;
19213;SDS011;9741;51.020;5.304;2023-04-24T01:50:30;3.87;;;2.50;;
19213;SDS011;9741;51.020;5.304;2023-04-24T01:52:57;7.00;;;2.30;;
19213;SDS011;9741;51.020;5.304;2023-04-24T01:55:25;2.40;;;2.00;;
19213;SDS011;9741;51.020;5.304;2023-04-24T01:57:53;3.50;;;2.47;;
19213;SDS011;9741;51.020;5.304;2023-04-24T02:00:22;9.97;;;3.23;;
19213;SDS011;9741;51.020;5.304;2023-04-24T02:02:49;2.83;;;2.40;;
19213;SDS011;9741;51.020;5.304;2023-04-24T02:05:17;4.17;;;2.70;;
19213;SDS011;9741;51.020;5.304;2023-04-24T02:07:44;3.03;;;2.03;;
19213;SDS011;9741;51.020;5.304;2023-04-24T02:10:11;6.23;;;2.97;;
19213;SDS011;9741;51.020;5.304;2023-04-24T02:12:39;4.57;;;2.60;;
19213;SDS011;9741;51.020;5.304;2023-04-24T02:15:07;5.53;;;3.17;;
19213;SDS011;9741;51.020;5.304;2023-04-24T02:17:35;3.27;;;2.13;;
19213;SDS011;9741;51.020;5.304;2023-04-24T02:20:02;4.37;;;1.77;;
19213;SDS011;9741;51.020;5.304;2023-04-24T02:22:30;1.70;;;1.53;;
19213;SDS011;9741;51.020;5.304;2023-04-24T02:24:57;4.70;;;2.17;;
19213;SDS011;9741;51.020;5.304;2023-04-24T02:27:25;5.13;;;2.13;;
19213;SDS011;9741;51.020;5.304;2023-04-24T02:29:52;4.37;;;2.83;;
19213;SDS011;9741;51.020;5.304;2023-04-24T02:32:21;1.67;;;1.57;;
19213;SDS011;9741;51.020;5.304;2023-04-24T02:34:48;3.63;;;1.37;;
19213;SDS011;9741;51.020;5.304;2023-04-24T02:37:16;6.60;;;2.27;;
19213;SDS011;9741;51.020;5.304;2023-04-24T02:39:43;3.40;;;2.20;;
19213;SDS011;9741;51.020;5.304;2023-04-24T02:42:10;1.97;;;1.70;;
19213;SDS011;9741;51.020;5.304;2023-04-24T02:44:37;4.70;;;2.87;;
19213;SDS011;9741;51.020;5.304;2023-04-24T02:47:04;3.50;;;2.30;;
19213;SDS011;9741;51.020;5.304;2023-04-24T02:49:34;3.43;;;2.63;;
19213;SDS011;9741;51.020;5.304;2023-04-24T02:52:01;1.27;;;1.17;;
19213;SDS011;9741;51.020;5.304;2023-04-24T02:54:28;3.10;;;2.23;;
19213;SDS011;9741;51.020;5.304;2023-04-24T02:56:55;5.40;;;1.73;;
19213;SDS011;9741;51.020;5.304;2023-04-24T02:59:23;1.47;;;1.37;;
19213;SDS011;9741;51.020;5.304;2023-04-24T03:01:52;1.70;;;1.60;;
19213;SDS011;9741;51.020;5.304;2023-04-24T03:04:19;6.63;;;2.47;;
19213;SDS011;9741;51.020;5.304;2023-04-24T03:06:49;2.50;;;1.60;;
19213;SDS011;9741;51.020;5.304;2023-04-24T03:09:17;1.60;;;1.50;;
19213;SDS011;9741;51.020;5.304;2023-04-24T03:11:45;3.17;;;2.03;;
19213;SDS011;9741;51.020;5.304;2023-04-24T03:14:12;2.03;;;1.83;;
19213;SDS011;9741;51.020;5.304;2023-04-24T03:16:39;3.33;;;2.03;;
19213;SDS011;9741;51.020;5.304;2023-04-24T03:19:06;1.60;;;1.50;;
19213;SDS011;9741;51.020;5.304;2023-04-24T03:21:33;2.37;;;1.73;;
19213;SDS011;9741;51.020;5.304;2023-04-24T03:24:07;1.50;;;1.33;;
19213;SDS011;9741;51.020;5.304;2023-04-24T03:26:34;2.47;;;1.77;;
19213;SDS011;9741;51.020;5.304;2023-04-24T03:29:01;3.57;;;2.30;;
19213;SDS011;9741;51.020;5.304;2023-04-24T03:31:29;2.90;;;1.47;;
19213;SDS011;9741;51.020;5.304;2023-04-24T03:33:56;2.17;;;1.83;;
19213;SDS011;9741;51.020;5.304;2023-04-24T03:36:23;2.83;;;2.00;;
19213;SDS011;9741;51.020;5.304;2023-04-24T03:38:51;1.83;;;1.33;;
19213;SDS011;9741;51.020;5.304;2023-04-24T03:41:19;2.40;;;2.20;;
19213;SDS011;9741;51.020;5.304;2023-04-24T03:43:47;2.57;;;2.13;;
19213;SDS011;9741;51.020;5.304;2023-04-24T03:46:14;1.63;;;1.53;;
19213;SDS011;9741;51.020;5.304;2023-04-24T03:48:42;4.57;;;2.27;;
19213;SDS011;9741;51.020;5.304;2023-04-24T03:51:09;3.30;;;2.23;;
19213;SDS011;9741;51.020;5.304;2023-04-24T03:53:36;2.67;;;1.77;;
19213;SDS011;9741;51.020;5.304;2023-04-24T03:56:03;5.07;;;2.57;;
19213;SDS011;9741;51.020;5.304;2023-04-24T03:58:32;3.80;;;1.93;;
19213;SDS011;9741;51.020;5.304;2023-04-24T04:00:59;2.97;;;2.63;;
19213;SDS011;9741;51.020;5.304;2023-04-24T04:03:27;21.50;;;2.20;;
19213;SDS011;9741;51.020;5.304;2023-04-24T04:05:55;1.73;;;1.60;;
19213;SDS011;9741;51.020;5.304;2023-04-24T04:08:22;4.17;;;2.23;;
19213;SDS011;9741;51.020;5.304;2023-04-24T04:10:49;1.60;;;1.50;;
19213;SDS011;9741;51.020;5.304;2023-04-24T04:13:16;5.80;;;2.53;;
19213;SDS011;9741;51.020;5.304;2023-04-24T04:15:45;1.60;;;1.50;;
19213;SDS011;9741;51.020;5.304;2023-04-24T04:18:12;4.40;;;2.03;;
19213;SDS011;9741;51.020;5.304;2023-04-24T04:20:39;3.40;;;1.57;;
19213;SDS011;9741;51.020;5.304;2023-04-24T04:23:06;1.60;;;1.43;;
19213;SDS011;9741;51.020;5.304;2023-04-24T04:25:33;4.13;;;1.87;;
19213;SDS011;9741;51.020;5.304;2023-04-24T04:28:00;4.27;;;1.37;;
19213;SDS011;9741;51.020;5.304;2023-04-24T04:30:28;4.00;;;2.17;;
19213;SDS011;9741;51.020;5.304;2023-04-24T04:32:58;2.60;;;1.17;;
19213;SDS011;9741;51.020;5.304;2023-04-24T04:35:26;2.43;;;2.17;;
19213;SDS011;9741;51.020;5.304;2023-04-24T04:37:53;3.10;;;2.07;;
19213;SDS011;9741;51.020;5.304;2023-04-24T04:40:21;2.90;;;2.03;;
19213;SDS011;9741;51.020;5.304;2023-04-24T04:42:48;3.67;;;2.57;;
19213;SDS011;9741;51.020;5.304;2023-04-24T04:45:18;3.37;;;2.13;;
19213;SDS011;9741;51.020;5.304;2023-04-24T04:47:45;3.30;;;1.87;;
19213;SDS011;9741;51.020;5.304;2023-04-24T04:50:15;0.77;;;0.77;;
19213;SDS011;9741;51.020;5.304;2023-04-24T04:52:44;1.37;;;1.27;;
19213;SDS011;9741;51.020;5.304;2023-04-24T04:55:11;1.40;;;1.20;;
19213;SDS011;9741;51.020;5.304;2023-04-24T04:57:39;2.73;;;2.30;;
19213;SDS011;9741;51.020;5.304;2023-04-24T05:00:10;1.80;;;1.70;;
19213;SDS011;9741;51.020;5.304;2023-04-24T05:02:38;2.43;;;1.60;;
19213;SDS011;9741;51.020;5.304;2023-04-24T05:05:06;1.50;;;1.40;;
19213;SDS011;9741;51.020;5.304;2023-04-24T05:07:35;1.40;;;1.10;;
19213;SDS011;9741;51.020;5.304;2023-04-24T05:10:03;1.57;;;1.47;;
19213;SDS011;9741;51.020;5.304;2023-04-24T05:12:31;2.70;;;1.43;;
19213;SDS011;9741;51.020;5.304;2023-04-24T05:14:58;0.90;;;0.50;;
19213;SDS011;9741;51.020;5.304;2023-04-24T05:17:25;1.80;;;1.40;;
19213;SDS011;9741;51.020;5.304;2023-04-24T05:19:52;1.10;;;1.00;;
19213;SDS011;9741;51.020;5.304;2023-04-24T05:22:19;1.37;;;0.50;;
19213;SDS011;9741;51.020;5.304;2023-04-24T05:24:48;3.07;;;0.73;;
19213;SDS011;9741;51.020;5.304;2023-04-24T05:27:15;2.13;;;1.40;;
19213;SDS011;9741;51.020;5.304;2023-04-24T05:29:43;0.63;;;0.63;;
19213;SDS011;9741;51.020;5.304;2023-04-24T05:32:10;0.50;;;0.50;;
19213;SDS011;9741;51.020;5.304;2023-04-24T05:34:37;0.60;;;0.60;;
19213;SDS011;9741;51.020;5.304;2023-04-24T05:37:04;0.77;;;0.63;;
19213;SDS011;9741;51.020;5.304;2023-04-24T05:39:34;0.63;;;0.63;;
19213;SDS011;9741;51.020;5.304;2023-04-24T05:42:03;0.87;;;0.83;;
19213;SDS011;9741;51.020;5.304;2023-04-24T05:44:31;1.30;;;1.10;;
19213;SDS011;9741;51.020;5.304;2023-04-24T05:46:58;0.40;;;0.40;;
19213;SDS011;9741;51.020;5.304;2023-04-24T05:49:25;1.07;;;0.43;;
19213;SDS011;9741;51.020;5.304;2023-04-24T05:51:53;0.50;;;0.50;;
19213;SDS011;9741;51.020;5.304;2023-04-24T05:54:20;1.07;;;0.93;;
19213;SDS011;9741;51.020;5.304;2023-04-24T05:56:47;1.93;;;0.93;;
19213;SDS011;9741;51.020;5.304;2023-04-24T05:59:16;3.07;;;1.07;;
19213;SDS011;9741;51.020;5.304;2023-04-24T06:01:44;1.13;;;0.73;;
19213;SDS011;9741;51.020;5.304;2023-04-24T06:04:11;1.83;;;1.37;;
19213;SDS011;9741;51.020;5.304;2023-04-24T06:06:39;3.40;;;1.57;;
19213;SDS011;9741;51.020;5.304;2023-04-24T06:09:07;1.23;;;1.13;;
19213;SDS011;9741;51.020;5.304;2023-04-24T06:11:34;1.57;;;1.47;;
19213;SDS011;9741;51.020;5.304;2023-04-24T06:14:01;1.13;;;1.00;;
19213;SDS011;9741;51.020;5.304;2023-04-24T06:16:30;2.77;;;1.10;;
19213;SDS011;9741;51.020;5.304;2023-04-24T06:18:58;6.03;;;1.33;;
19213;SDS011;9741;51.020;5.304;2023-04-24T06:21:25;1.07;;;1.03;;
19213;SDS011;9741;51.020;5.304;2023-04-24T06:23:52;1.20;;;1.10;;
19213;SDS011;9741;51.020;5.304;2023-04-24T06:26:21;1.03;;;0.90;;
19213;SDS011;9741;51.020;5.304;2023-04-24T06:28:50;2.87;;;2.07;;
19213;SDS011;9741;51.020;5.304;2023-04-24T06:31:18;2.40;;;1.93;;
19213;SDS011;9741;51.020;5.304;2023-04-24T06:33:47;1.60;;;1.50;;
19213;SDS011;9741;51.020;5.304;2023-04-24T06:36:15;3.53;;;1.67;;
19213;SDS011;9741;51.020;5.304;2023-04-24T06:38:43;1.00;;;0.93;;
19213;SDS011;9741;51.020;5.304;2023-04-24T06:41:10;2.30;;;1.60;;
19213;SDS011;9741;51.020;5.304;2023-04-24T06:43:38;1.30;;;1.00;;
19213;SDS011;9741;51.020;5.304;2023-04-24T06:46:05;0.87;;;0.80;;
19213;SDS011;9741;51.020;5.304;2023-04-24T06:48:32;4.50;;;1.53;;
19213;SDS011;9741;51.020;5.304;2023-04-24T06:51:01;1.90;;;1.03;;
19213;SDS011;9741;51.020;5.304;2023-04-24T06:53:28;8.60;;;1.17;;
19213;SDS011;9741;51.020;5.304;2023-04-24T06:55:55;3.17;;;1.77;;
19213;SDS011;9741;51.020;5.304;2023-04-24T06:58:23;1.97;;;1.13;;
19213;SDS011;9741;51.020;5.304;2023-04-24T07:00:51;1.00;;;0.90;;
19213;SDS011;9741;51.020;5.304;2023-04-24T07:03:18;1.30;;;1.10;;
19213;SDS011;9741;51.020;5.304;2023-04-24T07:05:45;1.30;;;1.20;;
19213;SDS011;9741;51.020;5.304;2023-04-24T07:08:14;5.73;;;2.00;;
19213;SDS011;9741;51.020;5.304;2023-04-24T07:10:42;1.10;;;0.93;;
19213;SDS011;9741;51.020;5.304;2023-04-24T07:13:10;2.13;;;0.90;;
19213;SDS011;9741;51.020;5.304;2023-04-24T07:15:37;1.07;;;1.00;;
19213;SDS011;9741;51.020;5.304;2023-04-24T07:18:06;2.87;;;1.47;;
19213;SDS011;9741;51.020;5.304;2023-04-24T07:20:33;1.30;;;1.20;;
19213;SDS011;9741;51.020;5.304;2023-04-24T07:23:00;5.17;;;1.70;;
19213;SDS011;9741;51.020;5.304;2023-04-24T07:25:29;1.10;;;1.07;;
19213;SDS011;9741;51.020;5.304;2023-04-24T07:27:57;3.37;;;1.73;;
19213;SDS011;9741;51.020;5.304;2023-04-24T07:30:24;2.33;;;1.50;;
19213;SDS011;9741;51.020;5.304;2023-04-24T07:32:53;1.07;;;0.93;;
19213;SDS011;9741;51.020;5.304;2023-04-24T07:35:21;2.60;;;1.77;;
19213;SDS011;9741;51.020;5.304;2023-04-24T07:37:50;1.90;;;1.23;;
19213;SDS011;9741;51.020;5.304;2023-04-24T07:40:17;3.57;;;2.50;;
19213;SDS011;9741;51.020;5.304;2023-04-24T07:42:46;1.60;;;1.20;;
19213;SDS011;9741;51.020;5.304;2023-04-24T07:45:14;1.30;;;1.07;;
19213;SDS011;9741;51.020;5.304;2023-04-24T07:47:41;2.30;;;1.33;;
19213;SDS011;9741;51.020;5.304;2023-04-24T07:50:10;2.37;;;0.90;;
19213;SDS011;9741;51.020;5.304;2023-04-24T07:52:38;1.37;;;1.27;;
19213;SDS011;9741;51.020;5.304;2023-04-24T07:55:06;0.83;;;0.83;;
19213;SDS011;9741;51.020;5.304;2023-04-24T07:57:33;2.17;;;1.30;;
19213;SDS011;9741;51.020;5.304;2023-04-24T08:00:03;1.43;;;1.33;;
19213;SDS011;9741;51.020;5.304;2023-04-24T08:02:32;0.43;;;0.43;;
19213;SDS011;9741;51.020;5.304;2023-04-24T08:04:59;1.33;;;1.23;;
19213;SDS011;9741;51.020;5.304;2023-04-24T08:07:26;1.53;;;1.10;;
19213;SDS011;9741;51.020;5.304;2023-04-24T08:09:53;2.93;;;1.10;;
19213;SDS011;9741;51.020;5.304;2023-04-24T08:12:20;2.43;;;1.67;;
19213;SDS011;9741;51.020;5.304;2023-04-24T08:14:48;1.33;;;1.23;;
19213;SDS011;9741;51.020;5.304;2023-04-24T08:17:17;2.13;;;1.50;;
19213;SDS011;9741;51.020;5.304;2023-04-24T08:19:44;4.27;;;2.20;;
19213;SDS011;9741;51.020;5.304;2023-04-24T08:22:13;1.80;;;1.70;;
19213;SDS011;9741;51.020;5.304;2023-04-24T08:24:40;2.03;;;1.60;;
19213;SDS011;9741;51.020;5.304;2023-04-24T08:27:08;2.90;;;1.80;;
19213;SDS011;9741;51.020;5.304;2023-04-24T08:29:36;2.20;;;1.30;;
19213;SDS011;9741;51.020;5.304;2023-04-24T08:32:03;5.33;;;1.67;;
19213;SDS011;9741;51.020;5.304;2023-04-24T08:34:33;3.00;;;1.43;;
19213;SDS011;9741;51.020;5.304;2023-04-24T08:37:01;2.53;;;1.40;;
19213;SDS011;9741;51.020;5.304;2023-04-24T08:39:29;0.87;;;0.63;;
19213;SDS011;9741;51.020;5.304;2023-04-24T08:41:57;2.10;;;1.50;;
19213;SDS011;9741;51.020;5.304;2023-04-24T08:44:30;1.30;;;1.20;;
19213;SDS011;9741;51.020;5.304;2023-04-24T08:46:58;1.80;;;1.53;;
19213;SDS011;9741;51.020;5.304;2023-04-24T08:49:27;7.43;;;1.57;;
19213;SDS011;9741;51.020;5.304;2023-04-24T08:51:57;0.83;;;0.83;;
19213;SDS011;9741;51.020;5.304;2023-04-24T08:54:26;2.87;;;1.40;;
19213;SDS011;9741;51.020;5.304;2023-04-24T08:56:58;3.70;;;1.10;;
19213;SDS011;9741;51.020;5.304;2023-04-24T08:59:29;1.47;;;1.37;;
19213;SDS011;9741;51.020;5.304;2023-04-24T09:01:57;0.90;;;0.90;;
19213;SDS011;9741;51.020;5.304;2023-04-24T09:04:25;2.87;;;1.23;;
19213;SDS011;9741;51.020;5.304;2023-04-24T09:06:55;1.40;;;0.87;;
19213;SDS011;9741;51.020;5.304;2023-04-24T09:09:24;0.70;;;0.70;;
19213;SDS011;9741;51.020;5.304;2023-04-24T09:11:52;1.87;;;1.20;;
19213;SDS011;9741;51.020;5.304;2023-04-24T09:14:20;1.20;;;1.10;;
19213;SDS011;9741;51.020;5.304;2023-04-24T09:16:52;2.40;;;1.60;;
19213;SDS011;9741;51.020;5.304;2023-04-24T09:19:19;0.97;;;0.97;;
19213;SDS011;9741;51.020;5.304;2023-04-24T09:21:47;2.87;;;1.10;;
19213;SDS011;9741;51.020;5.304;2023-04-24T09:24:17;1.60;;;1.27;;
19213;SDS011;9741;51.020;5.304;2023-04-24T09:26:47;0.97;;;0.87;;
19213;SDS011;9741;51.020;5.304;2023-04-24T09:29:16;0.93;;;0.70;;
19213;SDS011;9741;51.020;5.304;2023-04-24T09:31:44;0.83;;;0.83;;
19213;SDS011;9741;51.020;5.304;2023-04-24T09:34:12;5.73;;;0.77;;
19213;SDS011;9741;51.020;5.304;2023-04-24T09:36:40;1.43;;;0.77;;
19213;SDS011;9741;51.020;5.304;2023-04-24T09:39:10;2.50;;;1.00;;
19213;SDS011;9741;51.020;5.304;2023-04-24T09:41:44;7.13;;;3.00;;
19213;SDS011;9741;51.020;5.304;2023-04-24T09:44:13;1.50;;;1.40;;
19213;SDS011;9741;51.020;5.304;2023-04-24T09:46:43;1.60;;;1.27;;
19213;SDS011;9741;51.020;5.304;2023-04-24T09:49:13;1.23;;;0.97;;
19213;SDS011;9741;51.020;5.304;2023-04-24T09:51:42;12.77;;;1.87;;
19213;SDS011;9741;51.020;5.304;2023-04-24T09:54:16;5.53;;;1.67;;
19213;SDS011;9741;51.020;5.304;2023-04-24T09:56:47;1.87;;;1.40;;
19213;SDS011;9741;51.020;5.304;2023-04-24T09:59:16;2.93;;;1.43;;
19213;SDS011;9741;51.020;5.304;2023-04-24T10:01:44;7.27;;;1.13;;
19213;SDS011;9741;51.020;5.304;2023-04-24T10:04:17;8.43;;;1.03;;
19213;SDS011;9741;51.020;5.304;2023-04-24T10:06:46;1.57;;;1.20;;
19213;SDS011;9741;51.020;5.304;2023-04-24T10:09:14;1.27;;;1.03;;
19213;SDS011;9741;51.020;5.304;2023-04-24T10:11:43;1.70;;;1.37;;
19213;SDS011;9741;51.020;5.304;2023-04-24T10:14:13;1.20;;;1.03;;
19213;SDS011;9741;51.020;5.304;2023-04-24T10:16:42;3.30;;;1.30;;
19213;SDS011;9741;51.020;5.304;2023-04-24T10:19:13;4.47;;;1.00;;
19213;SDS011;9741;51.020;5.304;2023-04-24T10:21:41;4.50;;;2.07;;
19213;SDS011;9741;51.020;5.304;2023-04-24T10:24:12;4.57;;;1.80;;
19213;SDS011;9741;51.020;5.304;2023-04-24T10:26:41;11.07;;;1.50;;
19213;SDS011;9741;51.020;5.304;2023-04-24T10:29:09;2.23;;;0.73;;
19213;SDS011;9741;51.020;5.304;2023-04-24T10:31:39;1.10;;;1.00;;
19213;SDS011;9741;51.020;5.304;2023-04-24T10:34:07;1.07;;;0.80;;
19213;SDS011;9741;51.020;5.304;2023-04-24T10:36:38;1.37;;;1.27;;
19213;SDS011;9741;51.020;5.304;2023-04-24T10:39:10;2.90;;;0.80;;
19213;SDS011;9741;51.020;5.304;2023-04-24T10:41:40;4.37;;;1.90;;
19213;SDS011;9741;51.020;5.304;2023-04-24T10:44:09;0.63;;;0.60;;
19213;SDS011;9741;51.020;5.304;2023-04-24T10:46:39;1.17;;;1.10;;
19213;SDS011;9741;51.020;5.304;2023-04-24T10:49:13;0.80;;;0.73;;
19213;SDS011;9741;51.020;5.304;2023-04-24T10:51:48;4.60;;;1.13;;
19213;SDS011;9741;51.020;5.304;2023-04-24T10:54:22;1.17;;;0.80;;
19213;SDS011;9741;51.020;5.304;2023-04-24T10:56:51;2.63;;;1.63;;
19213;SDS011;9741;51.020;5.304;2023-04-24T10:59:23;2.23;;;1.40;;
19213;SDS011;9741;51.020;5.304;2023-04-24T11:01:55;1.07;;;0.97;;
19213;SDS011;9741;51.020;5.304;2023-04-24T11:04:29;1.87;;;1.33;;
19213;SDS011;9741;51.020;5.304;2023-04-24T11:06:58;2.80;;;1.00;;
19213;SDS011;9741;51.020;5.304;2023-04-24T11:09:27;1.43;;;1.07;;
19213;SDS011;9741;51.020;5.304;2023-04-24T11:12:06;1.47;;;1.33;;
19213;SDS011;9741;51.020;5.304;2023-04-24T11:17:31;2.40;;;1.30;;
19213;SDS011;9741;51.020;5.304;2023-04-24T11:20:03;2.00;;;1.27;;
19213;SDS011;9741;51.020;5.304;2023-04-24T11:22:32;3.23;;;0.73;;
19213;SDS011;9741;51.020;5.304;2023-04-24T11:25:01;1.17;;;1.07;;
19213;SDS011;9741;51.020;5.304;2023-04-24T11:27:29;0.97;;;0.87;;
19213;SDS011;9741;51.020;5.304;2023-04-24T11:29:59;0.80;;;0.80;;
19213;SDS011;9741;51.020;5.304;2023-04-24T11:32:27;8.87;;;1.17;;
19213;SDS011;9741;51.020;5.304;2023-04-24T11:34:58;4.53;;;1.10;;
19213;SDS011;9741;51.020;5.304;2023-04-24T11:37:32;2.23;;;1.00;;
19213;SDS011;9741;51.020;5.304;2023-04-24T11:40:01;2.70;;;0.57;;
19213;SDS011;9741;51.020;5.304;2023-04-24T11:42:34;1.30;;;1.17;;
19213;SDS011;9741;51.020;5.304;2023-04-24T11:45:06;1.23;;;0.80;;
19213;SDS011;9741;51.020;5.304;2023-04-24T11:47:35;0.70;;;0.70;;
19213;SDS011;9741;51.020;5.304;2023-04-24T11:50:04;0.70;;;0.70;;
19213;SDS011;9741;51.020;5.304;2023-04-24T11:52:33;1.23;;;0.50;;
19213;SDS011;9741;51.020;5.304;2023-04-24T11:55:03;0.97;;;0.73;;
19213;SDS011;9741;51.020;5.304;2023-04-24T11:57:32;1.00;;;0.95;;
19213;SDS011;9741;51.020;5.304;2023-04-24T12:00:01;0.47;;;0.47;;
19213;SDS011;9741;51.020;5.304;2023-04-24T12:02:30;2.00;;;1.67;;
19213;SDS011;9741;51.020;5.304;2023-04-24T12:04:58;7.65;;;1.17;;
19213;SDS011;9741;51.020;5.304;2023-04-24T12:07:26;0.82;;;0.80;;
19213;SDS011;9741;51.020;5.304;2023-04-24T12:09:57;2.60;;;1.20;;
19213;SDS011;9741;51.020;5.304;2023-04-24T12:12:26;1.07;;;0.93;;
19213;SDS011;9741;51.020;5.304;2023-04-24T12:14:54;0.88;;;0.88;;
19213;SDS011;9741;51.020;5.304;2023-04-24T12:17:25;3.03;;;1.25;;
19213;SDS011;9741;51.020;5.304;2023-04-24T12:19:57;1.35;;;1.25;;
19213;SDS011;9741;51.020;5.304;2023-04-24T12:22:26;1.25;;;1.15;;
19213;SDS011;9741;51.020;5.304;2023-04-24T12:24:58;4.43;;;1.30;;
19213;SDS011;9741;51.020;5.304;2023-04-24T12:27:28;1.00;;;0.90;;
19213;SDS011;9741;51.020;5.304;2023-04-24T12:29:56;0.98;;;0.95;;
19213;SDS011;9741;51.020;5.304;2023-04-24T12:32:25;0.73;;;0.73;;
19213;SDS011;9741;51.020;5.304;2023-04-24T12:34:53;4.87;;;1.83;;
19213;SDS011;9741;51.020;5.304;2023-04-24T12:37:22;1.40;;;1.30;;
19213;SDS011;9741;51.020;5.304;2023-04-24T12:40:02;1.33;;;1.23;;
19213;SDS011;9741;51.020;5.304;2023-04-24T12:42:31;1.17;;;1.08;;
19213;SDS011;9741;51.020;5.304;2023-04-24T12:44:59;3.90;;;1.20;;
19213;SDS011;9741;51.020;5.304;2023-04-24T12:47:28;0.60;;;0.60;;
19213;SDS011;9741;51.020;5.304;2023-04-24T12:49:56;0.73;;;0.70;;
19213;SDS011;9741;51.020;5.304;2023-04-24T12:52:24;1.95;;;1.10;;
19213;SDS011;9741;51.020;5.304;2023-04-24T12:54:52;4.78;;;1.23;;
19213;SDS011;9741;51.020;5.304;2023-04-24T12:57:23;1.17;;;1.07;;
19213;SDS011;9741;51.020;5.304;2023-04-24T12:59:53;2.03;;;1.30;;
19213;SDS011;9741;51.020;5.304;2023-04-24T13:02:21;3.63;;;1.23;;
19213;SDS011;9741;51.020;5.304;2023-04-24T13:04:49;1.23;;;1.03;;
19213;SDS011;9741;51.020;5.304;2023-04-24T13:07:18;3.00;;;1.33;;
19213;SDS011;9741;51.020;5.304;2023-04-24T13:09:45;1.07;;;0.90;;
19213;SDS011;9741;51.020;5.304;2023-04-24T13:12:14;1.50;;;0.93;;
19213;SDS011;9741;51.020;5.304;2023-04-24T13:14:43;3.13;;;1.33;;
19213;SDS011;9741;51.020;5.304;2023-04-24T13:17:10;1.33;;;1.20;;
19213;SDS011;9741;51.020;5.304;2023-04-24T13:19:38;2.23;;;1.27;;
19213;SDS011;9741;51.020;5.304;2023-04-24T13:22:10;0.80;;;0.80;;
19213;SDS011;9741;51.020;5.304;2023-04-24T13:24:39;1.80;;;1.40;;
19213;SDS011;9741;51.020;5.304;2023-04-24T13:27:07;1.23;;;1.13;;
19213;SDS011;9741;51.020;5.304;2023-04-24T13:29:34;1.50;;;1.40;;
19213;SDS011;9741;51.020;5.304;2023-04-24T13:32:04;1.10;;;1.00;;
19213;SDS011;9741;51.020;5.304;2023-04-24T13:34:31;0.65;;;0.65;;
19213;SDS011;9741;51.020;5.304;2023-04-24T13:36:59;2.15;;;0.80;;
19213;SDS011;9741;51.020;5.304;2023-04-24T13:39:28;3.13;;;1.33;;
19213;SDS011;9741;51.020;5.304;2023-04-24T13:41:56;0.60;;;0.57;;
19213;SDS011;9741;51.020;5.304;2023-04-24T13:44:25;0.95;;;0.70;;
19213;SDS011;9741;51.020;5.304;2023-04-24T13:46:52;0.68;;;0.68;;
19213;SDS011;9741;51.020;5.304;2023-04-24T13:49:23;1.08;;;0.90;;
19213;SDS011;9741;51.020;5.304;2023-04-24T13:51:51;4.18;;;0.52;;
19213;SDS011;9741;51.020;5.304;2023-04-24T13:54:20;0.77;;;0.63;;
19213;SDS011;9741;51.020;5.304;2023-04-24T13:56:48;2.60;;;0.90;;
19213;SDS011;9741;51.020;5.304;2023-04-24T13:59:16;0.80;;;0.80;;
19213;SDS011;9741;51.020;5.304;2023-04-24T14:01:43;0.55;;;0.55;;
19213;SDS011;9741;51.020;5.304;2023-04-24T14:04:10;0.70;;;0.70;;
19213;SDS011;9741;51.020;5.304;2023-04-24T14:06:39;0.85;;;0.85;;
19213;SDS011;9741;51.020;5.304;2023-04-24T14:09:06;0.60;;;0.50;;
19213;SDS011;9741;51.020;5.304;2023-04-24T14:11:33;1.13;;;0.60;;
19213;SDS011;9741;51.020;5.304;2023-04-24T14:14:01;1.90;;;1.13;;
19213;SDS011;9741;51.020;5.304;2023-04-24T14:16:29;1.33;;;0.87;;
19213;SDS011;9741;51.020;5.304;2023-04-24T14:18:56;2.35;;;1.25;;
19213;SDS011;9741;51.020;5.304;2023-04-24T14:21:24;1.55;;;0.82;;
19213;SDS011;9741;51.020;5.304;2023-04-24T14:23:52;0.40;;;0.40;;
19213;SDS011;9741;51.020;5.304;2023-04-24T14:26:20;1.30;;;0.82;;
19213;SDS011;9741;51.020;5.304;2023-04-24T14:28:47;1.20;;;0.82;;
19213;SDS011;9741;51.020;5.304;2023-04-24T14:31:14;0.77;;;0.70;;
19213;SDS011;9741;51.020;5.304;2023-04-24T14:33:42;0.82;;;0.82;;
19213;SDS011;9741;51.020;5.304;2023-04-24T14:36:09;0.97;;;0.60;;
19213;SDS011;9741;51.020;5.304;2023-04-24T14:38:37;1.05;;;0.70;;
19213;SDS011;9741;51.020;5.304;2023-04-24T14:41:05;1.02;;;0.60;;
19213;SDS011;9741;51.020;5.304;2023-04-24T14:43:35;0.95;;;0.88;;
19213;SDS011;9741;51.020;5.304;2023-04-24T14:46:02;1.40;;;0.82;;
19213;SDS011;9741;51.020;5.304;2023-04-24T14:48:30;0.52;;;0.52;;
19213;SDS011;9741;51.020;5.304;2023-04-24T14:50:57;2.17;;;0.55;;
19213;SDS011;9741;51.020;5.304;2023-04-24T14:53:24;0.93;;;0.70;;
19213;SDS011;9741;51.020;5.304;2023-04-24T14:55:52;0.73;;;0.65;;
19213;SDS011;9741;51.020;5.304;2023-04-24T14:58:21;0.70;;;0.70;;
19213;SDS011;9741;51.020;5.304;2023-04-24T15:00:48;0.88;;;0.60;;
19213;SDS011;9741;51.020;5.304;2023-04-24T15:03:17;0.98;;;0.80;;
19213;SDS011;9741;51.020;5.304;2023-04-24T15:05:45;1.73;;;0.70;;
19213;SDS011;9741;51.020;5.304;2023-04-24T15:08:13;0.98;;;0.70;;
19213;SDS011;9741;51.020;5.304;2023-04-24T15:10:41;2.13;;;0.73;;